Hauptseite
METAR-TAF:

METAR-TAF

Flughäfen :

Curicó, Chile

Breite: 34-58S, Länge: 071-14W, Höhe: 228 m

Beobachtung

Neuester Wetterbericht von vor 30 Minuten, um 12:00 UTC
Wind 7 kt aus Süd/Südost, variierte zwischen Ost/Südost und Süd
Temperatur 16°C
Luftfeuchtigkeit 63%
Luftdruck 1015 hPa
Sichtweite: 7000 m

METAR: SCIC 241200Z 15007KT 120V180 7000 NSC 16/09 Q1015

Zeit: 09:30 (12:30 UTC)


TAF: fehlend

Wetterbeobachtungen und Prognosen von mehr als 4000 Flughäfen (METAR und TAF Bericht).

Die verfügbaren Stationen werden durch gelbe und rote Markierungen auf der Karte dargestellt.

Führen Sie die Maus auf sie, um den Namen der Station zu sehen.

Darauf klicken, um die Beobachtung von Wetterbeobachtungen und Prognosen zu sehen.

Um die Karte zu ändern : klicken Sie auf den grünen Tasten mit einem schwarzen Kreuz Zum Vergrößern, auf den grünen Button mit einem Gedankenstrich zu verkleinern, oder auf die grünen Pfeile für benachbarte Karten.


METAR-TAF: